sensor_id;sensor_type;location;lat;lon;timestamp;pressure;altitude;pressure_sealevel;temperature;humidity
73242;BME280;65659;49.234;-2.094;2024-01-30T00:00:19;101340.20;;;12.09;54.42
73242;BME280;65659;49.234;-2.094;2024-01-30T00:02:43;101341.60;;;12.30;54.00
73242;BME280;65659;49.234;-2.094;2024-01-30T00:05:16;101347.68;;;12.11;54.43
73242;BME280;65659;49.234;-2.094;2024-01-30T00:07:34;101360.52;;;11.93;54.34
73242;BME280;65659;49.234;-2.094;2024-01-30T00:10:00;101353.06;;;12.16;54.39
73242;BME280;65659;49.234;-2.094;2024-01-30T00:12:26;101359.36;;;12.21;54.47
73242;BME280;65659;49.234;-2.094;2024-01-30T00:14:52;101367.29;;;11.96;54.59
73242;BME280;65659;49.234;-2.094;2024-01-30T00:17:17;101365.84;;;12.04;54.86
73242;BME280;65659;49.234;-2.094;2024-01-30T00:19:42;101376.15;;;12.12;54.53
73242;BME280;65659;49.234;-2.094;2024-01-30T00:22:07;101380.35;;;12.04;54.66
73242;BME280;65659;49.234;-2.094;2024-01-30T00:24:33;101362.00;;;11.88;54.96
73242;BME280;65659;49.234;-2.094;2024-01-30T00:26:59;101369.44;;;11.84;54.96
73242;BME280;65659;49.234;-2.094;2024-01-30T00:29:24;101385.89;;;11.81;55.12
73242;BME280;65659;49.234;-2.094;2024-01-30T00:31:49;101378.08;;;11.97;54.93
73242;BME280;65659;49.234;-2.094;2024-01-30T00:34:15;101393.41;;;12.00;54.93
73242;BME280;65659;49.234;-2.094;2024-01-30T00:36:40;101395.66;;;12.19;54.72
73242;BME280;65659;49.234;-2.094;2024-01-30T00:39:06;101393.09;;;11.94;54.52
73242;BME280;65659;49.234;-2.094;2024-01-30T00:41:31;101400.14;;;11.86;54.30
73242;BME280;65659;49.234;-2.094;2024-01-30T00:43:56;101407.78;;;11.92;53.44
73242;BME280;65659;49.234;-2.094;2024-01-30T00:46:22;101396.54;;;11.91;53.24
73242;BME280;65659;49.234;-2.094;2024-01-30T00:48:48;101389.45;;;11.82;52.98
73242;BME280;65659;49.234;-2.094;2024-01-30T00:51:13;101400.20;;;11.86;52.77
73242;BME280;65659;49.234;-2.094;2024-01-30T00:53:39;101401.66;;;11.79;52.80
73242;BME280;65659;49.234;-2.094;2024-01-30T00:56:04;101411.59;;;12.00;52.36
73242;BME280;65659;49.234;-2.094;2024-01-30T00:58:30;101416.18;;;12.01;52.41
73242;BME280;65659;49.234;-2.094;2024-01-30T01:00:56;101421.04;;;12.32;52.32
73242;BME280;65659;49.234;-2.094;2024-01-30T01:03:21;101415.04;;;11.95;52.64
73242;BME280;65659;49.234;-2.094;2024-01-30T01:05:47;101417.86;;;12.01;52.57
73242;BME280;65659;49.234;-2.094;2024-01-30T01:08:12;101429.54;;;11.90;52.36
73242;BME280;65659;49.234;-2.094;2024-01-30T01:10:38;101433.17;;;12.08;52.47
73242;BME280;65659;49.234;-2.094;2024-01-30T01:13:04;101436.00;;;12.03;52.68
73242;BME280;65659;49.234;-2.094;2024-01-30T01:15:29;101434.45;;;12.18;52.54
73242;BME280;65659;49.234;-2.094;2024-01-30T01:17:55;101429.94;;;11.97;52.90
73242;BME280;65659;49.234;-2.094;2024-01-30T01:20:20;101432.22;;;12.09;52.68
73242;BME280;65659;49.234;-2.094;2024-01-30T01:22:45;101440.58;;;11.92;53.15
73242;BME280;65659;49.234;-2.094;2024-01-30T01:25:11;101432.14;;;12.11;52.93
73242;BME280;65659;49.234;-2.094;2024-01-30T01:27:36;101433.81;;;11.94;52.95
73242;BME280;65659;49.234;-2.094;2024-01-30T01:30:02;101436.65;;;12.07;53.33
73242;BME280;65659;49.234;-2.094;2024-01-30T01:32:27;101436.18;;;11.99;53.71
73242;BME280;65659;49.234;-2.094;2024-01-30T01:34:53;101435.77;;;12.01;53.74
73242;BME280;65659;49.234;-2.094;2024-01-30T01:37:19;101434.73;;;11.99;53.97
73242;BME280;65659;49.234;-2.094;2024-01-30T01:39:43;101435.98;;;11.99;54.15
73242;BME280;65659;49.234;-2.094;2024-01-30T01:42:10;101445.58;;;11.91;54.39
73242;BME280;65659;49.234;-2.094;2024-01-30T01:44:34;101434.79;;;11.72;54.70
73242;BME280;65659;49.234;-2.094;2024-01-30T01:47:00;101435.14;;;11.44;55.28
73242;BME280;65659;49.234;-2.094;2024-01-30T01:49:25;101427.50;;;11.58;54.98
73242;BME280;65659;49.234;-2.094;2024-01-30T01:51:51;101437.71;;;11.25;55.68
73242;BME280;65659;49.234;-2.094;2024-01-30T01:54:17;101443.42;;;11.33;55.59
73242;BME280;65659;49.234;-2.094;2024-01-30T01:56:42;101447.41;;;11.55;55.17
73242;BME280;65659;49.234;-2.094;2024-01-30T01:59:09;101445.17;;;11.46;55.41
73242;BME280;65659;49.234;-2.094;2024-01-30T02:01:34;101448.57;;;11.46;55.39
73242;BME280;65659;49.234;-2.094;2024-01-30T02:03:59;101449.13;;;11.69;54.95
73242;BME280;65659;49.234;-2.094;2024-01-30T02:06:25;101460.06;;;11.48;55.28
73242;BME280;65659;49.234;-2.094;2024-01-30T02:08:50;101456.84;;;11.70;54.82
73242;BME280;65659;49.234;-2.094;2024-01-30T02:11:16;101460.19;;;11.74;54.77
73242;BME280;65659;49.234;-2.094;2024-01-30T02:13:41;101466.61;;;11.62;55.02
73242;BME280;65659;49.234;-2.094;2024-01-30T02:16:07;101463.80;;;11.68;54.93
73242;BME280;65659;49.234;-2.094;2024-01-30T02:18:32;101466.46;;;11.61;55.03
73242;BME280;65659;49.234;-2.094;2024-01-30T02:20:58;101482.00;;;11.53;55.21
73242;BME280;65659;49.234;-2.094;2024-01-30T02:23:24;101481.48;;;11.59;55.24
73242;BME280;65659;49.234;-2.094;2024-01-30T02:25:49;101487.10;;;11.56;55.47
73242;BME280;65659;49.234;-2.094;2024-01-30T02:28:14;101497.65;;;11.59;55.45
73242;BME280;65659;49.234;-2.094;2024-01-30T02:30:40;101497.34;;;11.48;55.62
73242;BME280;65659;49.234;-2.094;2024-01-30T02:33:06;101497.04;;;11.42;55.65
73242;BME280;65659;49.234;-2.094;2024-01-30T02:35:36;101503.40;;;11.72;55.55
73242;BME280;65659;49.234;-2.094;2024-01-30T02:37:56;101489.30;;;11.54;55.38
73242;BME280;65659;49.234;-2.094;2024-01-30T02:40:21;101494.34;;;11.53;55.41
73242;BME280;65659;49.234;-2.094;2024-01-30T02:42:46;101491.34;;;11.58;55.33
73242;BME280;65659;49.234;-2.094;2024-01-30T02:45:13;101491.47;;;11.64;55.29
73242;BME280;65659;49.234;-2.094;2024-01-30T02:47:38;101508.02;;;11.61;55.58
73242;BME280;65659;49.234;-2.094;2024-01-30T02:50:04;101509.42;;;11.50;55.82
73242;BME280;65659;49.234;-2.094;2024-01-30T02:52:28;101509.35;;;11.37;56.17
73242;BME280;65659;49.234;-2.094;2024-01-30T02:54:59;101519.07;;;11.27;56.48
73242;BME280;65659;49.234;-2.094;2024-01-30T02:57:19;101511.76;;;11.35;56.36
73242;BME280;65659;49.234;-2.094;2024-01-30T02:59:50;101517.83;;;11.19;56.66
73242;BME280;65659;49.234;-2.094;2024-01-30T03:02:10;101518.50;;;11.29;56.50
73242;BME280;65659;49.234;-2.094;2024-01-30T03:04:36;101512.87;;;11.26;56.58
73242;BME280;65659;49.234;-2.094;2024-01-30T03:07:01;101515.30;;;11.30;56.39
73242;BME280;65659;49.234;-2.094;2024-01-30T03:09:27;101510.58;;;11.34;56.33
73242;BME280;65659;49.234;-2.094;2024-01-30T03:11:52;101507.31;;;11.25;56.56
73242;BME280;65659;49.234;-2.094;2024-01-30T03:14:18;101506.46;;;11.28;56.50
73242;BME280;65659;49.234;-2.094;2024-01-30T03:16:43;101504.53;;;11.34;56.45
73242;BME280;65659;49.234;-2.094;2024-01-30T03:19:09;101504.62;;;11.35;56.45
73242;BME280;65659;49.234;-2.094;2024-01-30T03:21:33;101502.60;;;11.36;56.45
73242;BME280;65659;49.234;-2.094;2024-01-30T03:23:59;101504.03;;;11.86;56.49
73242;BME280;65659;49.234;-2.094;2024-01-30T03:26:25;101508.23;;;11.39;56.52
73242;BME280;65659;49.234;-2.094;2024-01-30T03:28:51;101504.86;;;11.48;56.41
73242;BME280;65659;49.234;-2.094;2024-01-30T03:31:16;101497.77;;;11.55;56.27
73242;BME280;65659;49.234;-2.094;2024-01-30T03:33:47;101491.47;;;11.57;56.17
73242;BME280;65659;49.234;-2.094;2024-01-30T03:36:08;101499.17;;;11.49;56.43
73242;BME280;65659;49.234;-2.094;2024-01-30T03:38:33;101499.87;;;11.56;56.21
73242;BME280;65659;49.234;-2.094;2024-01-30T03:40:59;101507.78;;;11.41;56.46
73242;BME280;65659;49.234;-2.094;2024-01-30T03:43:24;101504.08;;;11.35;56.39
73242;BME280;65659;49.234;-2.094;2024-01-30T03:45:49;101512.01;;;11.43;56.20
73242;BME280;65659;49.234;-2.094;2024-01-30T03:48:15;101514.20;;;11.36;55.77
73242;BME280;65659;49.234;-2.094;2024-01-30T03:50:40;101518.59;;;11.29;55.31
73242;BME280;65659;49.234;-2.094;2024-01-30T03:53:06;101524.07;;;11.35;55.03
73242;BME280;65659;49.234;-2.094;2024-01-30T03:55:31;101525.79;;;11.70;54.68
73242;BME280;65659;49.234;-2.094;2024-01-30T03:57:57;101530.54;;;11.54;54.43
73242;BME280;65659;49.234;-2.094;2024-01-30T04:00:22;101530.41;;;11.55;54.35
73242;BME280;65659;49.234;-2.094;2024-01-30T04:02:53;101532.79;;;11.48;54.34
73242;BME280;65659;49.234;-2.094;2024-01-30T04:05:13;101531.17;;;11.75;54.25
73242;BME280;65659;49.234;-2.094;2024-01-30T04:07:38;101535.58;;;11.81;54.14
73242;BME280;65659;49.234;-2.094;2024-01-30T04:10:04;101536.81;;;11.71;53.91
73242;BME280;65659;49.234;-2.094;2024-01-30T04:12:29;101537.33;;;11.96;53.78
73242;BME280;65659;49.234;-2.094;2024-01-30T04:14:55;101537.81;;;11.73;53.74
73242;BME280;65659;49.234;-2.094;2024-01-30T04:17:21;101539.67;;;12.23;53.61
73242;BME280;65659;49.234;-2.094;2024-01-30T04:19:46;101540.48;;;11.78;53.50
73242;BME280;65659;49.234;-2.094;2024-01-30T04:22:12;101541.64;;;11.81;53.35
73242;BME280;65659;49.234;-2.094;2024-01-30T04:24:37;101541.01;;;11.79;53.30
73242;BME280;65659;49.234;-2.094;2024-01-30T04:27:03;101542.87;;;11.81;53.11
73242;BME280;65659;49.234;-2.094;2024-01-30T04:29:28;101545.79;;;11.75;53.12
73242;BME280;65659;49.234;-2.094;2024-01-30T04:31:54;101556.53;;;11.87;53.07
73242;BME280;65659;49.234;-2.094;2024-01-30T04:34:25;101554.96;;;11.80;53.18
73242;BME280;65659;49.234;-2.094;2024-01-30T04:36:45;101556.35;;;11.78;53.18
73242;BME280;65659;49.234;-2.094;2024-01-30T04:39:10;101559.93;;;11.88;53.06
73242;BME280;65659;49.234;-2.094;2024-01-30T04:41:36;101560.14;;;11.78;53.07
73242;BME280;65659;49.234;-2.094;2024-01-30T04:44:02;101564.23;;;11.94;53.11
73242;BME280;65659;49.234;-2.094;2024-01-30T04:46:26;101566.82;;;11.90;53.45
73242;BME280;65659;49.234;-2.094;2024-01-30T04:48:52;101567.40;;;11.77;53.63
73242;BME280;65659;49.234;-2.094;2024-01-30T04:51:23;101567.65;;;11.19;53.60
73242;BME280;65659;49.234;-2.094;2024-01-30T04:53:44;101571.64;;;11.57;53.67
73242;BME280;65659;49.234;-2.094;2024-01-30T04:56:10;101580.09;;;11.42;53.92
73242;BME280;65659;49.234;-2.094;2024-01-30T04:58:35;101579.62;;;11.76;54.12
73242;BME280;65659;49.234;-2.094;2024-01-30T05:01:01;101585.49;;;11.42;54.29
73242;BME280;65659;49.234;-2.094;2024-01-30T05:03:26;101587.65;;;11.35;54.37
73242;BME280;65659;49.234;-2.094;2024-01-30T05:05:51;101587.35;;;11.01;54.54
73242;BME280;65659;49.234;-2.094;2024-01-30T05:08:17;101591.14;;;10.97;54.59
73242;BME280;65659;49.234;-2.094;2024-01-30T05:10:43;101596.19;;;10.87;54.77
73242;BME280;65659;49.234;-2.094;2024-01-30T05:13:09;101598.80;;;10.90;54.70
73242;BME280;65659;49.234;-2.094;2024-01-30T05:15:35;101601.58;;;10.88;54.75
73242;BME280;65659;49.234;-2.094;2024-01-30T05:18:00;101606.75;;;11.09;54.80
73242;BME280;65659;49.234;-2.094;2024-01-30T05:20:24;101608.72;;;11.16;54.72
73242;BME280;65659;49.234;-2.094;2024-01-30T05:22:50;101611.67;;;10.94;54.73
73242;BME280;65659;49.234;-2.094;2024-01-30T05:25:15;101615.58;;;11.24;54.63
73242;BME280;65659;49.234;-2.094;2024-01-30T05:27:40;101615.75;;;11.00;54.63
73242;BME280;65659;49.234;-2.094;2024-01-30T05:30:06;101622.27;;;10.98;54.60
73242;BME280;65659;49.234;-2.094;2024-01-30T05:32:30;101620.06;;;11.01;54.57
73242;BME280;65659;49.234;-2.094;2024-01-30T05:34:55;101627.92;;;10.95;54.62
73242;BME280;65659;49.234;-2.094;2024-01-30T05:37:20;101631.41;;;10.84;54.71
73242;BME280;65659;49.234;-2.094;2024-01-30T05:39:46;101639.45;;;10.97;54.77
73242;BME280;65659;49.234;-2.094;2024-01-30T05:42:11;101641.32;;;10.94;54.70
73242;BME280;65659;49.234;-2.094;2024-01-30T05:44:37;101645.01;;;10.69;54.63
73242;BME280;65659;49.234;-2.094;2024-01-30T05:47:02;101648.64;;;10.92;54.54
73242;BME280;65659;49.234;-2.094;2024-01-30T05:49:27;101648.98;;;10.67;54.51
73242;BME280;65659;49.234;-2.094;2024-01-30T05:51:52;101655.13;;;10.92;54.49
73242;BME280;65659;49.234;-2.094;2024-01-30T05:54:18;101651.71;;;10.93;54.49
73242;BME280;65659;49.234;-2.094;2024-01-30T05:56:48;101659.21;;;11.23;54.40
73242;BME280;65659;49.234;-2.094;2024-01-30T05:59:09;101657.83;;;10.77;54.38
73242;BME280;65659;49.234;-2.094;2024-01-30T06:01:34;101658.47;;;11.30;54.30
73242;BME280;65659;49.234;-2.094;2024-01-30T06:04:00;101659.25;;;11.13;54.18
73242;BME280;65659;49.234;-2.094;2024-01-30T06:06:25;101661.33;;;11.39;54.14
73242;BME280;65659;49.234;-2.094;2024-01-30T06:08:51;101660.01;;;10.94;54.09
73242;BME280;65659;49.234;-2.094;2024-01-30T06:11:16;101660.67;;;10.97;54.10
73242;BME280;65659;49.234;-2.094;2024-01-30T06:13:41;101662.66;;;11.22;54.03
73242;BME280;65659;49.234;-2.094;2024-01-30T06:16:10;101666.64;;;11.00;54.00
73242;BME280;65659;49.234;-2.094;2024-01-30T06:18:31;101671.38;;;11.05;53.83
73242;BME280;65659;49.234;-2.094;2024-01-30T06:20:56;101673.25;;;11.31;53.76
73242;BME280;65659;49.234;-2.094;2024-01-30T06:23:21;101672.72;;;11.06;53.58
73242;BME280;65659;49.234;-2.094;2024-01-30T06:25:47;101683.91;;;11.30;53.54
73242;BME280;65659;49.234;-2.094;2024-01-30T06:28:13;101681.46;;;11.08;53.47
73242;BME280;65659;49.234;-2.094;2024-01-30T06:30:39;101687.18;;;11.04;53.38
73242;BME280;65659;49.234;-2.094;2024-01-30T06:33:05;101692.22;;;11.16;53.19
73242;BME280;65659;49.234;-2.094;2024-01-30T06:35:30;101693.08;;;11.17;53.07
73242;BME280;65659;49.234;-2.094;2024-01-30T06:37:55;101699.77;;;11.42;53.07
73242;BME280;65659;49.234;-2.094;2024-01-30T06:40:21;101704.53;;;11.27;52.90
73242;BME280;65659;49.234;-2.094;2024-01-30T06:42:46;101705.36;;;11.27;52.34
73242;BME280;65659;49.234;-2.094;2024-01-30T06:45:11;101706.82;;;11.44;52.03
73242;BME280;65659;49.234;-2.094;2024-01-30T06:47:36;101712.01;;;11.40;51.51
73242;BME280;65659;49.234;-2.094;2024-01-30T06:50:02;101709.42;;;11.67;51.31
73242;BME280;65659;49.234;-2.094;2024-01-30T06:52:27;101711.83;;;11.77;51.12
73242;BME280;65659;49.234;-2.094;2024-01-30T06:54:53;101712.34;;;11.83;50.91
73242;BME280;65659;49.234;-2.094;2024-01-30T06:57:19;101714.52;;;11.58;50.79
73242;BME280;65659;49.234;-2.094;2024-01-30T06:59:44;101719.28;;;11.62;50.75
73242;BME280;65659;49.234;-2.094;2024-01-30T07:02:10;101718.18;;;11.64;50.73
73242;BME280;65659;49.234;-2.094;2024-01-30T07:04:36;101717.69;;;11.64;50.67
73242;BME280;65659;49.234;-2.094;2024-01-30T07:07:01;101720.67;;;11.60;50.61
73242;BME280;65659;49.234;-2.094;2024-01-30T07:09:27;101721.72;;;11.58;50.64
73242;BME280;65659;49.234;-2.094;2024-01-30T07:11:53;101724.28;;;11.53;50.62
73242;BME280;65659;49.234;-2.094;2024-01-30T07:14:18;101729.83;;;11.47;50.66
73242;BME280;65659;49.234;-2.094;2024-01-30T07:16:43;101733.82;;;11.44;50.58
73242;BME280;65659;49.234;-2.094;2024-01-30T07:19:09;101740.68;;;11.33;50.65
73242;BME280;65659;49.234;-2.094;2024-01-30T07:21:35;101741.74;;;11.27;50.68
73242;BME280;65659;49.234;-2.094;2024-01-30T07:24:01;101741.61;;;11.24;50.60
73242;BME280;65659;49.234;-2.094;2024-01-30T07:26:25;101751.36;;;10.79;50.49
73242;BME280;65659;49.234;-2.094;2024-01-30T07:28:50;101758.47;;;11.38;50.32
73242;BME280;65659;49.234;-2.094;2024-01-30T07:31:16;101755.36;;;11.49;50.04
73242;BME280;65659;49.234;-2.094;2024-01-30T07:33:41;101754.89;;;10.83;50.22
73242;BME280;65659;49.234;-2.094;2024-01-30T07:36:06;101758.89;;;11.35;50.08
73242;BME280;65659;49.234;-2.094;2024-01-30T07:38:32;101758.94;;;10.94;50.18
73242;BME280;65659;49.234;-2.094;2024-01-30T07:40:56;101767.16;;;10.95;50.13
73242;BME280;65659;49.234;-2.094;2024-01-30T07:43:22;101764.58;;;11.22;49.92
73242;BME280;65659;49.234;-2.094;2024-01-30T07:45:49;101768.07;;;10.76;49.87
73242;BME280;65659;49.234;-2.094;2024-01-30T07:48:22;101766.06;;;10.93;49.54
73242;BME280;65659;49.234;-2.094;2024-01-30T07:50:37;101767.49;;;10.56;49.21
73242;BME280;65659;49.234;-2.094;2024-01-30T07:53:03;101768.61;;;11.29;48.65
73242;BME280;65659;49.234;-2.094;2024-01-30T07:55:28;101770.38;;;11.02;48.25
73242;BME280;65659;49.234;-2.094;2024-01-30T07:57:54;101777.35;;;11.11;47.94
73242;BME280;65659;49.234;-2.094;2024-01-30T08:00:20;101779.65;;;10.69;47.78
73242;BME280;65659;49.234;-2.094;2024-01-30T08:02:44;101781.81;;;10.82;47.08
73242;BME280;65659;49.234;-2.094;2024-01-30T08:05:09;101780.93;;;11.15;46.57
73242;BME280;65659;49.234;-2.094;2024-01-30T08:07:34;101783.24;;;10.89;46.23
73242;BME280;65659;49.234;-2.094;2024-01-30T08:10:00;101786.52;;;11.38;45.68
73242;BME280;65659;49.234;-2.094;2024-01-30T08:12:25;101788.50;;;11.46;45.61
73242;BME280;65659;49.234;-2.094;2024-01-30T08:14:52;101794.21;;;11.61;45.28
73242;BME280;65659;49.234;-2.094;2024-01-30T08:17:17;101796.15;;;11.54;44.84
73242;BME280;65659;49.234;-2.094;2024-01-30T08:19:42;101794.46;;;11.93;44.77
73242;BME280;65659;49.234;-2.094;2024-01-30T08:22:07;101799.05;;;11.77;44.59
73242;BME280;65659;49.234;-2.094;2024-01-30T08:24:33;101807.30;;;11.38;44.41
73242;BME280;65659;49.234;-2.094;2024-01-30T08:26:59;101810.91;;;11.25;44.13
73242;BME280;65659;49.234;-2.094;2024-01-30T08:29:25;101814.76;;;11.85;44.13
73242;BME280;65659;49.234;-2.094;2024-01-30T08:31:49;101822.56;;;11.92;43.96
73242;BME280;65659;49.234;-2.094;2024-01-30T08:34:15;101825.68;;;11.81;43.90
73242;BME280;65659;49.234;-2.094;2024-01-30T08:36:40;101826.39;;;11.93;43.79
73242;BME280;65659;49.234;-2.094;2024-01-30T08:39:07;101832.30;;;12.05;43.77
73242;BME280;65659;49.234;-2.094;2024-01-30T08:41:31;101836.02;;;12.12;43.73
73242;BME280;65659;49.234;-2.094;2024-01-30T08:43:58;101837.49;;;12.23;43.66
73242;BME280;65659;49.234;-2.094;2024-01-30T08:46:23;101841.54;;;12.54;43.61
73242;BME280;65659;49.234;-2.094;2024-01-30T08:48:48;101851.38;;;12.15;43.46
73242;BME280;65659;49.234;-2.094;2024-01-30T08:51:14;101853.23;;;12.09;43.38
73242;BME280;65659;49.234;-2.094;2024-01-30T08:53:40;101857.45;;;12.13;43.49
73242;BME280;65659;49.234;-2.094;2024-01-30T08:56:09;101860.85;;;12.83;43.58
73242;BME280;65659;49.234;-2.094;2024-01-30T08:58:39;101868.58;;;12.07;43.51
73242;BME280;65659;49.234;-2.094;2024-01-30T09:03:25;101867.17;;;12.22;43.16
73242;BME280;65659;49.234;-2.094;2024-01-30T09:06:03;101875.03;;;12.28;43.10
73242;BME280;65659;49.234;-2.094;2024-01-30T09:08:43;101873.58;;;12.41;42.90
73242;BME280;65659;49.234;-2.094;2024-01-30T09:10:51;101875.30;;;12.31;42.88
73242;BME280;65659;49.234;-2.094;2024-01-30T09:13:05;101877.54;;;12.47;42.83
73242;BME280;65659;49.234;-2.094;2024-01-30T09:15:31;101876.11;;;12.43;42.79
73242;BME280;65659;49.234;-2.094;2024-01-30T09:17:55;101881.62;;;12.52;42.71
73242;BME280;65659;49.234;-2.094;2024-01-30T09:20:21;101886.19;;;12.58;42.75
73242;BME280;65659;49.234;-2.094;2024-01-30T09:22:47;101890.64;;;12.64;42.47
73242;BME280;65659;49.234;-2.094;2024-01-30T09:25:14;101892.24;;;12.71;42.40
73242;BME280;65659;49.234;-2.094;2024-01-30T09:27:38;101894.92;;;12.70;42.37
73242;BME280;65659;49.234;-2.094;2024-01-30T09:30:05;101893.50;;;12.46;42.11
73242;BME280;65659;49.234;-2.094;2024-01-30T09:32:29;101900.63;;;12.59;42.12
73242;BME280;65659;49.234;-2.094;2024-01-30T09:34:55;101906.81;;;12.42;41.96
73242;BME280;65659;49.234;-2.094;2024-01-30T09:37:21;101906.51;;;12.72;41.89
73242;BME280;65659;49.234;-2.094;2024-01-30T09:39:45;101910.77;;;12.56;41.54
73242;BME280;65659;49.234;-2.094;2024-01-30T09:42:18;101910.52;;;13.16;41.48
73242;BME280;65659;49.234;-2.094;2024-01-30T09:44:37;101913.08;;;12.73;41.16
73242;BME280;65659;49.234;-2.094;2024-01-30T09:47:05;101914.56;;;12.80;41.16
73242;BME280;65659;49.234;-2.094;2024-01-30T09:49:28;101910.64;;;12.78;40.64
73242;BME280;65659;49.234;-2.094;2024-01-30T09:51:53;101918.34;;;12.82;40.75
73242;BME280;65659;49.234;-2.094;2024-01-30T09:54:21;101921.33;;;12.87;40.79
73242;BME280;65659;49.234;-2.094;2024-01-30T09:56:45;101924.19;;;12.93;40.60
73242;BME280;65659;49.234;-2.094;2024-01-30T09:59:10;101923.79;;;12.99;40.45
73242;BME280;65659;49.234;-2.094;2024-01-30T10:01:38;101926.83;;;13.07;40.52
73242;BME280;65659;49.234;-2.094;2024-01-30T10:04:04;101928.25;;;13.41;40.45
73242;BME280;65659;49.234;-2.094;2024-01-30T10:06:29;101931.92;;;13.42;39.93
73242;BME280;65659;49.234;-2.094;2024-01-30T10:08:52;101940.41;;;13.26;40.01
73242;BME280;65659;49.234;-2.094;2024-01-30T10:11:18;101939.51;;;13.23;39.79
73242;BME280;65659;49.234;-2.094;2024-01-30T10:13:43;101943.18;;;13.27;39.90
73242;BME280;65659;49.234;-2.094;2024-01-30T10:16:10;101952.14;;;13.37;39.84
73242;BME280;65659;49.234;-2.094;2024-01-30T10:18:33;101952.31;;;13.80;39.97
73242;BME280;65659;49.234;-2.094;2024-01-30T10:21:03;101957.06;;;13.63;40.04
73242;BME280;65659;49.234;-2.094;2024-01-30T10:23:27;101964.98;;;13.38;39.89
73242;BME280;65659;49.234;-2.094;2024-01-30T10:25:52;101966.33;;;13.49;39.58
73242;BME280;65659;49.234;-2.094;2024-01-30T10:28:18;101972.80;;;13.42;39.48
73242;BME280;65659;49.234;-2.094;2024-01-30T10:30:46;101970.36;;;13.49;39.41
73242;BME280;65659;49.234;-2.094;2024-01-30T10:33:08;101979.48;;;13.57;38.85
73242;BME280;65659;49.234;-2.094;2024-01-30T10:35:33;101973.60;;;13.55;38.86
73242;BME280;65659;49.234;-2.094;2024-01-30T10:37:59;101972.42;;;13.66;38.70
73242;BME280;65659;49.234;-2.094;2024-01-30T10:40:28;101971.65;;;13.79;38.42
73242;BME280;65659;49.234;-2.094;2024-01-30T10:42:50;101970.66;;;13.62;37.35
73242;BME280;65659;49.234;-2.094;2024-01-30T10:45:15;101973.95;;;13.69;37.19
73242;BME280;65659;49.234;-2.094;2024-01-30T10:47:41;101978.25;;;13.74;37.07
73242;BME280;65659;49.234;-2.094;2024-01-30T10:50:08;101977.18;;;13.87;36.65
73242;BME280;65659;49.234;-2.094;2024-01-30T10:52:31;101976.54;;;13.89;36.48
73242;BME280;65659;49.234;-2.094;2024-01-30T10:58:01;101976.38;;;14.45;36.54
73242;BME280;65659;49.234;-2.094;2024-01-30T11:17:05;101995.01;;;13.58;35.23
73242;BME280;65659;49.234;-2.094;2024-01-30T11:29:13;101989.82;;;13.73;35.66
73242;BME280;65659;49.234;-2.094;2024-01-30T11:38:54;102000.47;;;13.39;35.53
73242;BME280;65659;49.234;-2.094;2024-01-30T11:41:18;102003.58;;;13.63;35.32
73242;BME280;65659;49.234;-2.094;2024-01-30T11:50:45;101999.38;;;12.75;36.19
73242;BME280;65659;49.234;-2.094;2024-01-30T11:53:09;102006.50;;;12.67;35.55
73242;BME280;65659;49.234;-2.094;2024-01-30T11:55:35;102014.25;;;12.96;35.10
73242;BME280;65659;49.234;-2.094;2024-01-30T11:58:00;102015.63;;;13.03;34.65
73242;BME280;65659;49.234;-2.094;2024-01-30T12:00:25;102015.88;;;13.12;34.70
73242;BME280;65659;49.234;-2.094;2024-01-30T12:02:51;102015.81;;;13.53;34.42
73242;BME280;65659;49.234;-2.094;2024-01-30T12:05:16;102016.58;;;13.47;34.16
73242;BME280;65659;49.234;-2.094;2024-01-30T12:07:45;102016.43;;;13.22;34.11
73242;BME280;65659;49.234;-2.094;2024-01-30T12:10:08;102016.48;;;13.28;33.59
73242;BME280;65659;49.234;-2.094;2024-01-30T12:12:32;102019.31;;;13.44;33.26
73242;BME280;65659;49.234;-2.094;2024-01-30T12:14:57;102018.59;;;12.91;33.22
73242;BME280;65659;49.234;-2.094;2024-01-30T12:17:28;102021.27;;;12.99;33.31
73242;BME280;65659;49.234;-2.094;2024-01-30T12:19:50;102020.80;;;13.54;32.95
73242;BME280;65659;49.234;-2.094;2024-01-30T12:22:14;102023.06;;;13.23;33.15
73242;BME280;65659;49.234;-2.094;2024-01-30T12:24:40;102024.54;;;13.33;32.99
73242;BME280;65659;49.234;-2.094;2024-01-30T12:27:06;102025.13;;;13.36;32.78
73242;BME280;65659;49.234;-2.094;2024-01-30T12:29:34;102025.69;;;13.30;33.07
73242;BME280;65659;49.234;-2.094;2024-01-30T12:31:57;102024.94;;;13.56;33.12
73242;BME280;65659;49.234;-2.094;2024-01-30T12:34:22;102028.28;;;13.39;33.29
73242;BME280;65659;49.234;-2.094;2024-01-30T12:36:48;102032.67;;;13.43;33.29
73242;BME280;65659;49.234;-2.094;2024-01-30T12:39:14;102033.63;;;13.23;33.29
73242;BME280;65659;49.234;-2.094;2024-01-30T12:41:39;102035.03;;;13.26;33.46
73242;BME280;65659;49.234;-2.094;2024-01-30T12:44:05;102031.64;;;13.24;33.30
73242;BME280;65659;49.234;-2.094;2024-01-30T12:46:30;102035.67;;;13.32;33.23
73242;BME280;65659;49.234;-2.094;2024-01-30T12:48:56;102031.45;;;13.41;33.33
73242;BME280;65659;49.234;-2.094;2024-01-30T12:51:20;102038.33;;;13.48;33.27
73242;BME280;65659;49.234;-2.094;2024-01-30T12:53:45;102035.30;;;13.79;32.95
73242;BME280;65659;49.234;-2.094;2024-01-30T12:56:12;102038.31;;;13.73;33.25
73242;BME280;65659;49.234;-2.094;2024-01-30T12:58:37;102041.92;;;13.51;33.06
73242;BME280;65659;49.234;-2.094;2024-01-30T13:01:03;102043.70;;;14.02;32.94
73242;BME280;65659;49.234;-2.094;2024-01-30T13:03:28;102041.14;;;13.46;33.01
73242;BME280;65659;49.234;-2.094;2024-01-30T13:05:54;102038.58;;;13.41;33.11
73242;BME280;65659;49.234;-2.094;2024-01-30T13:08:19;102039.09;;;13.80;33.05
73242;BME280;65659;49.234;-2.094;2024-01-30T13:10:45;102035.27;;;13.48;33.36
73242;BME280;65659;49.234;-2.094;2024-01-30T13:13:10;102037.63;;;13.58;33.07
73242;BME280;65659;49.234;-2.094;2024-01-30T13:15:37;102031.27;;;13.68;33.31